createdAt,value
2023-05-04T00:00:45.233Z,8.20
2023-05-04T00:01:45.176Z,8.18
2023-05-04T00:02:45.320Z,8.17
2023-05-04T00:03:45.410Z,8.17
2023-05-04T00:04:45.263Z,8.17
2023-05-04T00:05:45.452Z,8.14
2023-05-04T00:06:45.176Z,8.15
2023-05-04T00:07:45.128Z,8.12
2023-05-04T00:08:45.117Z,8.12
2023-05-04T00:09:45.086Z,8.12
2023-05-04T00:10:45.090Z,8.11
2023-05-04T00:11:45.070Z,8.12
2023-05-04T00:12:45.436Z,8.10
2023-05-04T00:13:45.057Z,8.10
2023-05-04T00:14:45.044Z,8.10
2023-05-04T00:15:45.053Z,8.10
2023-05-04T00:16:45.121Z,8.08
2023-05-04T00:17:45.025Z,8.07
2023-05-04T00:18:45.040Z,8.07
2023-05-04T00:19:45.265Z,8.04
2023-05-04T00:20:44.994Z,8.04
2023-05-04T00:21:44.965Z,8.07
2023-05-04T00:22:44.962Z,8.04
2023-05-04T00:23:44.956Z,8.04
2023-05-04T00:24:44.968Z,8.07
2023-05-04T00:25:44.913Z,8.03
2023-05-04T00:26:45.195Z,8.04
2023-05-04T00:27:44.904Z,8.02
2023-05-04T00:28:44.908Z,8.03
2023-05-04T00:29:44.883Z,8.02
2023-05-04T00:30:44.925Z,8.00
2023-05-04T00:31:44.891Z,7.97
2023-05-04T00:32:44.870Z,8.00
2023-05-04T00:33:45.133Z,7.96
2023-05-04T00:34:44.867Z,7.96
2023-05-04T00:35:44.815Z,7.96
2023-05-04T00:36:44.856Z,7.94
2023-05-04T00:37:44.793Z,7.94
2023-05-04T00:38:44.816Z,7.93
2023-05-04T00:39:44.783Z,7.93
2023-05-04T00:40:45.049Z,7.93
2023-05-04T00:41:44.772Z,7.93
2023-05-04T00:42:44.813Z,7.94
2023-05-04T00:43:44.733Z,7.94
2023-05-04T00:44:44.728Z,7.93
2023-05-04T00:45:44.709Z,7.90
2023-05-04T00:46:44.738Z,7.92
2023-05-04T00:47:45.021Z,7.89
2023-05-04T00:48:44.749Z,7.87
2023-05-04T00:49:44.675Z,7.85
2023-05-04T00:50:44.677Z,7.81
2023-05-04T00:51:44.650Z,7.79
2023-05-04T00:52:44.646Z,7.79
2023-05-04T00:53:44.630Z,7.79
2023-05-04T00:54:44.935Z,7.78
2023-05-04T00:55:44.625Z,7.75
2023-05-04T00:56:44.622Z,7.75
2023-05-04T00:57:44.578Z,7.72
2023-05-04T00:58:44.575Z,7.71
2023-05-04T00:59:44.562Z,7.71
2023-05-04T01:00:44.645Z,7.72
2023-05-04T01:01:44.829Z,7.67
2023-05-04T01:02:44.617Z,7.69
2023-05-04T01:03:44.580Z,7.67
2023-05-04T01:04:44.530Z,7.63
2023-05-04T01:05:44.516Z,7.63
2023-05-04T01:06:44.544Z,7.62
2023-05-04T01:07:44.514Z,7.62
2023-05-04T01:08:44.803Z,7.58
2023-05-04T01:09:44.464Z,7.58
2023-05-04T01:10:44.472Z,7.56
2023-05-04T01:11:44.437Z,7.56
2023-05-04T01:12:44.596Z,7.53
2023-05-04T01:13:44.410Z,7.52
2023-05-04T01:14:44.413Z,7.53
2023-05-04T01:15:44.670Z,7.52
2023-05-04T01:16:44.419Z,7.49
2023-05-04T01:17:44.425Z,7.50
2023-05-04T01:18:44.406Z,7.50
2023-05-04T01:19:44.366Z,7.49
2023-05-04T01:20:45.208Z,7.50
2023-05-04T01:21:44.348Z,7.50
2023-05-04T01:22:44.630Z,7.50
2023-05-04T01:23:44.342Z,7.52
2023-05-04T01:24:44.339Z,7.49
2023-05-04T01:25:44.311Z,7.49
2023-05-04T01:26:44.292Z,7.47
2023-05-04T01:27:44.265Z,7.45
2023-05-04T01:28:44.259Z,7.40
2023-05-04T01:29:44.530Z,7.38
2023-05-04T01:30:44.308Z,7.37
2023-05-04T01:31:44.228Z,7.37
2023-05-04T01:32:44.244Z,7.35
2023-05-04T01:33:44.208Z,7.37
2023-05-04T01:34:44.189Z,7.37
2023-05-04T01:35:44.201Z,7.35
2023-05-04T01:36:44.516Z,7.35
2023-05-04T01:37:44.155Z,7.34
2023-05-04T01:38:44.157Z,7.32
2023-05-04T01:39:44.144Z,7.34
2023-05-04T01:40:44.129Z,7.32
2023-05-04T01:41:44.111Z,7.27
2023-05-04T01:42:44.155Z,7.29
2023-05-04T01:43:44.367Z,7.27
2023-05-04T01:44:44.085Z,7.27
2023-05-04T01:45:44.083Z,7.26
2023-05-04T01:46:44.103Z,7.29
2023-05-04T01:47:44.137Z,7.24
2023-05-04T01:48:44.089Z,7.23
2023-05-04T01:49:44.065Z,7.22
2023-05-04T01:50:44.352Z,7.19
2023-05-04T01:51:44.008Z,7.17
2023-05-04T01:52:44.055Z,7.12
2023-05-04T01:53:43.996Z,7.13
2023-05-04T01:54:44.025Z,7.12
2023-05-04T01:55:43.962Z,7.05
2023-05-04T01:56:43.964Z,7.05
2023-05-04T01:57:44.238Z,7.02
2023-05-04T01:58:43.947Z,6.99
2023-05-04T01:59:43.951Z,6.99
2023-05-04T02:00:43.952Z,6.98
2023-05-04T02:01:43.960Z,6.97
2023-05-04T02:02:44.019Z,6.97
2023-05-04T02:03:43.991Z,6.90
2023-05-04T02:04:44.167Z,6.89
2023-05-04T02:05:43.885Z,6.87
2023-05-04T02:06:43.900Z,6.86
2023-05-04T02:07:43.829Z,6.84
2023-05-04T02:08:50.739Z,6.81
2023-05-04T02:09:43.827Z,6.81
2023-05-04T02:10:43.823Z,6.80
2023-05-04T02:11:44.124Z,6.79
2023-05-04T02:12:43.877Z,6.79
2023-05-04T02:13:43.778Z,6.77
2023-05-04T02:14:43.790Z,6.77
2023-05-04T02:15:43.813Z,6.73
2023-05-04T02:16:43.748Z,6.73
2023-05-04T02:17:43.787Z,6.72
2023-05-04T02:18:44.081Z,6.73
2023-05-04T02:19:43.722Z,6.71
2023-05-04T02:20:43.701Z,6.69
2023-05-04T02:21:43.689Z,6.69
2023-05-04T02:22:43.701Z,6.68
2023-05-04T02:23:43.669Z,6.68
2023-05-04T02:24:43.707Z,6.69
2023-05-04T02:25:43.941Z,6.69
2023-05-04T02:26:43.653Z,6.68
2023-05-04T02:27:43.652Z,6.68
2023-05-04T02:28:43.657Z,6.69
2023-05-04T02:29:43.631Z,6.69
2023-05-04T02:30:43.653Z,6.69
2023-05-04T02:31:43.646Z,6.71
2023-05-04T02:32:43.880Z,6.71
2023-05-04T02:33:43.570Z,6.73
2023-05-04T02:34:43.557Z,6.73
2023-05-04T02:35:43.548Z,6.76
2023-05-04T02:36:43.585Z,6.76
2023-05-04T02:37:43.531Z,6.73
2023-05-04T02:38:43.537Z,6.76
2023-05-04T02:39:43.526Z,6.76
2023-05-04T02:40:43.501Z,6.73
2023-05-04T02:41:43.488Z,6.73
2023-05-04T02:42:43.536Z,6.73
2023-05-04T02:43:43.481Z,6.72
2023-05-04T02:44:43.764Z,6.72
2023-05-04T02:45:43.497Z,6.71
2023-05-04T02:46:43.443Z,6.72
2023-05-04T02:47:43.454Z,6.71
2023-05-04T02:48:43.478Z,6.71
2023-05-04T02:49:43.417Z,6.71
2023-05-04T02:50:43.673Z,6.72
2023-05-04T02:51:43.388Z,6.72
2023-05-04T02:52:43.373Z,6.73
2023-05-04T02:53:43.373Z,6.73
2023-05-04T02:54:43.405Z,6.71
2023-05-04T02:55:43.348Z,6.72
2023-05-04T02:56:43.352Z,6.69
2023-05-04T02:57:43.606Z,6.69
2023-05-04T02:58:43.321Z,6.69
2023-05-04T02:59:43.303Z,6.66
2023-05-04T03:00:43.354Z,6.68
2023-05-04T03:01:43.344Z,6.66
2023-05-04T03:02:43.389Z,6.66
2023-05-04T03:03:43.269Z,6.65
2023-05-04T03:04:43.581Z,6.65
2023-05-04T03:05:43.291Z,6.66
2023-05-04T03:06:43.292Z,6.66
2023-05-04T03:07:43.258Z,6.68
2023-05-04T03:08:43.210Z,6.68
2023-05-04T03:09:44.776Z,6.68
2023-05-04T03:10:43.187Z,6.66
2023-05-04T03:11:43.454Z,6.65
2023-05-04T03:12:43.249Z,6.63
2023-05-04T03:13:43.156Z,6.63
2023-05-04T03:14:43.136Z,6.62
2023-05-04T03:15:43.132Z,6.62
2023-05-04T03:16:43.155Z,6.61
2023-05-04T03:17:43.146Z,6.61
2023-05-04T03:18:43.424Z,6.58
2023-05-04T03:19:43.086Z,6.59
2023-05-04T03:20:43.097Z,6.59
2023-05-04T03:21:43.083Z,6.59
2023-05-04T03:22:43.080Z,6.61
2023-05-04T03:23:43.065Z,6.62
2023-05-04T03:24:43.075Z,6.61
2023-05-04T03:25:43.308Z,6.63
2023-05-04T03:26:43.021Z,6.62
2023-05-04T03:27:43.011Z,6.62
2023-05-04T03:28:42.996Z,6.62
2023-05-04T03:29:42.991Z,6.61
2023-05-04T03:30:43.005Z,6.59
2023-05-04T03:31:43.042Z,6.58
2023-05-04T03:32:43.257Z,6.56
2023-05-04T03:33:42.939Z,6.53
2023-05-04T03:34:42.942Z,6.54
2023-05-04T03:35:42.954Z,6.54
2023-05-04T03:36:42.938Z,6.51
2023-05-04T03:37:42.918Z,6.51
2023-05-04T03:38:42.880Z,6.53
2023-05-04T03:39:52.291Z,6.51
2023-05-04T03:40:42.861Z,6.51
2023-05-04T03:41:42.880Z,6.50
2023-05-04T03:42:42.902Z,6.47
2023-05-04T03:43:42.846Z,6.47
2023-05-04T03:44:42.822Z,6.48
2023-05-04T03:45:42.844Z,6.48
2023-05-04T03:46:43.101Z,6.46
2023-05-04T03:47:42.918Z,6.46
2023-05-04T03:48:42.818Z,6.44
2023-05-04T03:49:42.772Z,6.44
2023-05-04T03:50:42.790Z,6.46
2023-05-04T03:51:42.767Z,6.47
2023-05-04T03:52:42.745Z,6.47
2023-05-04T03:53:44.657Z,6.47
2023-05-04T03:54:42.748Z,6.50
2023-05-04T03:55:42.715Z,6.50
2023-05-04T03:56:42.726Z,6.48
2023-05-04T03:57:42.706Z,6.50
2023-05-04T03:58:42.673Z,6.50
2023-05-04T03:59:42.678Z,6.48
2023-05-04T04:00:42.705Z,6.51
2023-05-04T04:01:42.664Z,6.48
2023-05-04T04:02:42.720Z,6.48
2023-05-04T04:03:42.686Z,6.50
2023-05-04T04:04:42.656Z,6.48
2023-05-04T04:05:42.956Z,6.51
2023-05-04T04:06:43.522Z,6.50
2023-05-04T04:07:42.593Z,6.48
2023-05-04T04:08:42.576Z,6.47
2023-05-04T04:09:42.565Z,6.48
2023-05-04T04:10:42.572Z,6.48
2023-05-04T04:11:42.540Z,6.47
2023-05-04T04:12:42.933Z,6.46
2023-05-04T04:13:42.524Z,6.46
2023-05-04T04:14:42.519Z,6.44
2023-05-04T04:15:42.846Z,6.44
2023-05-04T04:16:42.618Z,6.44
2023-05-04T04:17:42.520Z,6.46
2023-05-04T04:18:42.504Z,6.44
2023-05-04T04:19:42.471Z,6.46
2023-05-04T04:20:42.482Z,6.47
2023-05-04T04:21:42.448Z,6.48
2023-05-04T04:22:42.428Z,6.48
2023-05-04T04:23:42.428Z,6.51
2023-05-04T04:24:42.444Z,6.50
2023-05-04T04:25:44.576Z,6.50
2023-05-04T04:26:42.369Z,6.53
2023-05-04T04:27:42.377Z,6.53
2023-05-04T04:28:42.368Z,6.53
2023-05-04T04:29:42.393Z,6.56
2023-05-04T04:30:42.377Z,6.56
2023-05-04T04:31:42.362Z,6.58
2023-05-04T04:32:42.625Z,6.58
2023-05-04T04:33:42.318Z,6.59
2023-05-04T04:34:42.295Z,6.61
2023-05-04T04:35:42.294Z,6.62
2023-05-04T04:36:42.310Z,6.65
2023-05-04T04:37:42.271Z,6.63
2023-05-04T04:38:42.262Z,6.69
2023-05-04T04:39:42.347Z,6.69
2023-05-04T04:40:42.242Z,6.71
2023-05-04T04:41:42.229Z,6.73
2023-05-04T04:42:42.252Z,6.76
2023-05-04T04:43:42.205Z,6.77
2023-05-04T04:44:42.505Z,6.79
2023-05-04T04:45:42.188Z,6.77
2023-05-04T04:46:42.177Z,6.79
2023-05-04T04:47:42.222Z,6.80
2023-05-04T04:48:42.204Z,6.81
2023-05-04T04:49:42.169Z,6.80
2023-05-04T04:50:42.153Z,6.80
2023-05-04T04:51:42.149Z,6.80
2023-05-04T04:52:42.135Z,6.81
2023-05-04T04:53:42.115Z,6.83
2023-05-04T04:54:42.132Z,6.81
2023-05-04T04:55:42.098Z,6.84
2023-05-04T04:56:42.082Z,6.83
2023-05-04T04:57:42.078Z,6.84
2023-05-04T04:58:42.039Z,6.86
2023-05-04T04:59:42.064Z,6.84
2023-05-04T05:00:42.095Z,6.87
2023-05-04T05:01:42.041Z,6.86
2023-05-04T05:02:42.050Z,6.87
2023-05-04T05:03:42.012Z,6.89
2023-05-04T05:04:42.043Z,6.89
2023-05-04T05:05:41.990Z,6.90
2023-05-04T05:06:42.002Z,6.89
2023-05-04T05:07:41.972Z,6.91
2023-05-04T05:08:41.969Z,6.94
2023-05-04T05:09:42.305Z,6.97
2023-05-04T05:10:43.822Z,6.99
2023-05-04T05:11:41.937Z,7.01
2023-05-04T05:12:42.033Z,7.05
2023-05-04T05:13:41.896Z,7.09
2023-05-04T05:14:41.900Z,7.15
2023-05-04T05:15:41.888Z,7.19
2023-05-04T05:16:41.935Z,7.23
2023-05-04T05:17:41.904Z,7.27
2023-05-04T05:18:41.904Z,7.27
2023-05-04T05:19:42.341Z,7.31
2023-05-04T05:20:42.133Z,7.32
2023-05-04T05:21:41.825Z,7.34
2023-05-04T05:22:41.819Z,7.34
2023-05-04T05:23:41.797Z,7.35
2023-05-04T05:24:41.817Z,7.35
2023-05-04T05:25:41.786Z,7.38
2023-05-04T05:26:41.790Z,7.40
2023-05-04T05:27:41.736Z,7.37
2023-05-04T05:28:41.757Z,7.41
2023-05-04T05:29:41.735Z,7.40
2023-05-04T05:30:47.402Z,7.40
2023-05-04T05:31:41.735Z,7.41
2023-05-04T05:32:41.999Z,7.41
2023-05-04T05:33:41.690Z,7.44
2023-05-04T05:34:41.689Z,7.45
2023-05-04T05:35:41.702Z,7.49
2023-05-04T05:36:41.721Z,7.52
2023-05-04T05:37:41.660Z,7.52
2023-05-04T05:38:41.669Z,7.56
2023-05-04T05:39:41.655Z,7.58
2023-05-04T05:40:41.598Z,7.63
2023-05-04T05:41:41.617Z,7.71
2023-05-04T05:42:41.616Z,7.72
2023-05-04T05:43:41.614Z,7.77
2023-05-04T05:44:41.579Z,7.81
2023-05-04T05:45:41.575Z,7.87
2023-05-04T05:46:41.564Z,7.89
2023-05-04T05:47:42.315Z,7.93
2023-05-04T05:48:41.600Z,7.96
2023-05-04T05:49:42.595Z,7.97
2023-05-04T05:50:41.560Z,8.03
2023-05-04T05:51:41.542Z,8.10
2023-05-04T05:52:41.516Z,8.14
2023-05-04T05:53:41.468Z,8.21
2023-05-04T05:54:41.534Z,8.28
2023-05-04T05:55:41.467Z,8.37
2023-05-04T05:56:41.516Z,8.45
2023-05-04T05:57:41.792Z,8.58
2023-05-04T05:58:41.512Z,8.72
2023-05-04T05:59:41.494Z,8.96
2023-05-04T06:00:41.559Z,9.48
2023-05-04T06:01:41.425Z,10.25
2023-05-04T06:02:41.495Z,11.01
2023-05-04T06:03:41.578Z,11.57
2023-05-04T06:04:41.459Z,12.30
2023-05-04T06:05:41.387Z,13.06
2023-05-04T06:06:42.634Z,13.67
2023-05-04T06:07:41.371Z,14.25
2023-05-04T06:08:41.347Z,14.57
2023-05-04T06:09:41.323Z,14.95
2023-05-04T06:10:41.593Z,15.12
2023-05-04T06:11:41.309Z,15.20
2023-05-04T06:12:41.420Z,15.54
2023-05-04T06:13:41.286Z,15.64
2023-05-04T06:14:41.275Z,15.39
2023-05-04T06:15:41.270Z,15.13
2023-05-04T06:16:41.351Z,14.80
2023-05-04T06:17:41.271Z,14.69
2023-05-04T06:18:41.326Z,14.28
2023-05-04T06:19:41.226Z,13.47
2023-05-04T06:20:41.253Z,13.27
2023-05-04T06:21:41.248Z,13.25
2023-05-04T06:22:41.495Z,13.37
2023-05-04T06:23:41.273Z,13.27
2023-05-04T06:24:41.264Z,13.24
2023-05-04T06:25:41.161Z,13.24
2023-05-04T06:26:41.144Z,13.18
2023-05-04T06:27:41.170Z,13.09
2023-05-04T06:28:41.401Z,13.20
2023-05-04T06:29:41.162Z,13.30
2023-05-04T06:30:41.152Z,13.55
2023-05-04T06:31:41.127Z,13.62
2023-05-04T06:32:41.127Z,13.76
2023-05-04T06:33:41.077Z,13.80
2023-05-04T06:34:41.094Z,13.87
2023-05-04T06:35:41.077Z,13.79
2023-05-04T06:36:41.133Z,13.89
2023-05-04T06:37:41.797Z,14.06
2023-05-04T06:38:41.046Z,14.01
2023-05-04T06:39:41.026Z,14.13
2023-05-04T06:40:41.084Z,14.12
2023-05-04T06:41:41.267Z,14.31
2023-05-04T06:42:41.019Z,14.61
2023-05-04T06:43:40.982Z,14.72
2023-05-04T06:44:41.005Z,14.98
2023-05-04T06:45:41.054Z,15.01
2023-05-04T06:46:40.941Z,14.99
2023-05-04T06:47:40.940Z,15.01
2023-05-04T06:48:41.255Z,15.21
2023-05-04T06:49:40.943Z,15.35
2023-05-04T06:50:40.905Z,15.39
2023-05-04T06:51:40.904Z,15.31
2023-05-04T06:52:40.911Z,14.95
2023-05-04T06:53:40.904Z,14.72
2023-05-04T06:54:40.902Z,14.34
2023-05-04T06:55:41.151Z,14.31
2023-05-04T06:56:40.914Z,14.07
2023-05-04T06:57:40.826Z,13.76
2023-05-04T06:58:40.839Z,13.76
2023-05-04T06:59:40.827Z,13.81
2023-05-04T07:00:40.819Z,13.89
2023-05-04T07:01:40.910Z,13.67
2023-05-04T07:02:40.810Z,13.67
2023-05-04T07:03:40.792Z,13.81
2023-05-04T07:04:40.815Z,14.04
2023-05-04T07:05:40.791Z,14.07
2023-05-04T07:06:40.786Z,14.16
2023-05-04T07:07:40.756Z,14.29
2023-05-04T07:08:40.723Z,14.19
2023-05-04T07:09:40.705Z,14.20
2023-05-04T07:10:40.706Z,13.91
2023-05-04T07:11:40.691Z,13.96
2023-05-04T07:12:40.748Z,13.89
2023-05-04T07:13:40.724Z,13.74
2023-05-04T07:14:40.940Z,13.79
2023-05-04T07:15:40.668Z,13.76
2023-05-04T07:16:40.744Z,13.83
2023-05-04T07:17:40.845Z,14.01
2023-05-04T07:18:40.701Z,14.12
2023-05-04T07:19:40.621Z,14.21
2023-05-04T07:20:40.691Z,14.27
2023-05-04T07:21:40.600Z,14.29
2023-05-04T07:22:40.574Z,14.34
2023-05-04T07:23:40.564Z,14.39
2023-05-04T07:24:40.681Z,14.46
2023-05-04T07:25:40.618Z,14.49
2023-05-04T07:26:40.818Z,14.62
2023-05-04T07:27:40.524Z,14.68
2023-05-04T07:28:40.531Z,14.83
2023-05-04T07:29:40.602Z,14.88
2023-05-04T07:30:40.615Z,14.94
2023-05-04T07:31:40.551Z,15.05
2023-05-04T07:32:40.559Z,14.75
2023-05-04T07:33:40.479Z,14.74
2023-05-04T07:34:45.615Z,14.81
2023-05-04T07:35:40.518Z,14.98
2023-05-04T07:36:43.179Z,14.99
2023-05-04T07:37:40.465Z,14.98
2023-05-04T07:38:40.698Z,15.02
2023-05-04T07:39:41.349Z,15.05
2023-05-04T07:40:40.423Z,15.03
2023-05-04T07:41:40.389Z,14.84
2023-05-04T07:42:40.406Z,14.69
2023-05-04T07:43:40.363Z,14.67
2023-05-04T07:44:40.355Z,14.69
2023-05-04T07:45:40.680Z,14.65
2023-05-04T07:46:40.376Z,14.65
2023-05-04T07:47:40.359Z,14.71
2023-05-04T07:48:40.343Z,14.64
2023-05-04T07:49:40.333Z,14.80
2023-05-04T07:50:40.320Z,14.87
2023-05-04T07:51:40.324Z,14.99
2023-05-04T07:52:40.320Z,15.17
2023-05-04T07:53:40.294Z,15.36
2023-05-04T07:54:40.291Z,15.46
2023-05-04T07:55:40.259Z,15.33
2023-05-04T07:56:40.210Z,15.27
2023-05-04T07:57:40.277Z,15.30
2023-05-04T07:58:40.631Z,15.11
2023-05-04T07:59:40.210Z,15.19
2023-05-04T08:00:40.301Z,15.38
2023-05-04T08:01:42.527Z,15.59
2023-05-04T08:02:40.263Z,15.64
2023-05-04T08:03:40.164Z,15.75
2023-05-04T08:04:40.157Z,15.86
2023-05-04T08:05:40.453Z,16.01
2023-05-04T08:06:40.240Z,15.92
2023-05-04T08:07:40.131Z,15.97
2023-05-04T08:08:40.151Z,16.09
2023-05-04T08:09:40.114Z,16.18
2023-05-04T08:10:40.078Z,16.34
2023-05-04T08:11:40.140Z,16.45
2023-05-04T08:12:40.176Z,16.52
2023-05-04T08:13:40.050Z,16.63
2023-05-04T08:14:40.043Z,16.74
2023-05-04T08:15:40.053Z,16.74
2023-05-04T08:16:40.020Z,16.81
2023-05-04T08:17:40.004Z,16.74
2023-05-04T08:18:40.094Z,16.88
2023-05-04T08:19:39.986Z,16.86
2023-05-04T08:20:40.010Z,16.98
2023-05-04T08:21:39.940Z,17.07
2023-05-04T08:22:39.981Z,17.25
2023-05-04T08:23:39.956Z,17.13
2023-05-04T08:24:40.323Z,17.25
2023-05-04T08:25:39.976Z,17.22
2023-05-04T08:26:39.909Z,17.17
2023-05-04T08:27:39.946Z,17.28
2023-05-04T08:28:39.924Z,17.00
2023-05-04T08:29:39.947Z,17.00
2023-05-04T08:30:39.965Z,16.99
2023-05-04T08:31:39.911Z,17.11
2023-05-04T08:32:39.883Z,17.14
2023-05-04T08:33:39.824Z,17.32
2023-05-04T08:34:39.805Z,17.43
2023-05-04T08:35:39.850Z,17.20
2023-05-04T08:36:40.127Z,17.15
2023-05-04T08:37:39.844Z,17.29
2023-05-04T08:38:39.812Z,17.54
2023-05-04T08:39:41.923Z,17.62
2023-05-04T08:40:39.871Z,17.74
2023-05-04T08:41:39.780Z,17.91
2023-05-04T08:42:39.797Z,18.00
2023-05-04T08:43:39.768Z,17.91
2023-05-04T08:44:40.749Z,17.94
2023-05-04T08:45:39.807Z,17.99
2023-05-04T08:46:39.736Z,18.07
2023-05-04T08:47:39.721Z,18.17
2023-05-04T08:48:40.021Z,18.04
2023-05-04T08:49:39.657Z,18.09
2023-05-04T08:50:39.689Z,17.99
2023-05-04T08:51:39.632Z,18.06
2023-05-04T08:52:39.663Z,18.13
2023-05-04T08:53:39.643Z,17.97
2023-05-04T08:54:39.697Z,17.85
2023-05-04T08:55:39.914Z,17.89
2023-05-04T08:56:39.700Z,18.06
2023-05-04T08:57:39.656Z,18.18
2023-05-04T08:58:39.564Z,18.36
2023-05-04T08:59:39.604Z,18.49
2023-05-04T09:00:39.679Z,18.58
2023-05-04T09:01:39.575Z,18.70
2023-05-04T09:02:39.962Z,18.62
2023-05-04T09:03:39.582Z,18.83
2023-05-04T09:04:39.490Z,18.95
2023-05-04T09:05:39.545Z,18.54
2023-05-04T09:06:39.585Z,18.19
2023-05-04T09:07:39.468Z,18.40
2023-05-04T09:08:39.499Z,18.57
2023-05-04T09:09:39.453Z,18.70
2023-05-04T09:10:39.540Z,18.94
2023-05-04T09:11:39.446Z,18.94
2023-05-04T09:12:39.477Z,19.10
2023-05-04T09:13:39.436Z,19.24
2023-05-04T09:14:39.406Z,19.39
2023-05-04T09:15:39.487Z,19.54
2023-05-04T09:16:39.435Z,19.69
2023-05-04T09:17:50.956Z,19.90
2023-05-04T09:18:39.448Z,20.15
2023-05-04T09:19:39.356Z,20.10
2023-05-04T09:20:39.341Z,20.23
2023-05-04T09:21:39.694Z,20.25
2023-05-04T09:22:39.450Z,20.18
2023-05-04T09:23:39.403Z,20.31
2023-05-04T09:24:39.352Z,20.31
2023-05-04T09:25:39.318Z,20.09
2023-05-04T09:26:39.326Z,19.97
2023-05-04T09:27:39.267Z,19.98
2023-05-04T09:28:39.553Z,20.06
2023-05-04T09:29:39.230Z,19.94
2023-05-04T09:30:39.422Z,19.88
2023-05-04T09:31:39.384Z,19.97
2023-05-04T09:32:39.223Z,20.10
2023-05-04T09:33:39.575Z,20.20
2023-05-04T09:34:39.180Z,20.03
2023-05-04T09:35:39.196Z,19.87
2023-05-04T09:36:39.298Z,19.94
2023-05-04T09:37:39.168Z,19.73
2023-05-04T09:38:39.153Z,19.97
2023-05-04T09:39:39.464Z,20.09
2023-05-04T09:40:39.186Z,20.28
2023-05-04T09:41:39.172Z,20.46
2023-05-04T09:42:39.179Z,20.41
2023-05-04T09:43:39.103Z,20.58
2023-05-04T09:44:39.098Z,20.81
2023-05-04T09:45:39.098Z,20.51
2023-05-04T09:46:39.151Z,20.50
2023-05-04T09:47:39.173Z,20.61
2023-05-04T09:48:39.150Z,20.41
2023-05-04T09:49:39.112Z,20.34
2023-05-04T09:50:39.125Z,20.54
2023-05-04T09:51:39.112Z,20.71
2023-05-04T09:52:40.382Z,20.84
2023-05-04T09:53:39.070Z,21.05
2023-05-04T09:54:39.108Z,21.27
2023-05-04T09:55:38.994Z,21.27
2023-05-04T09:56:39.019Z,21.27
2023-05-04T09:57:39.050Z,21.13
2023-05-04T09:58:39.050Z,21.05
2023-05-04T09:59:39.268Z,20.95
2023-05-04T10:00:39.099Z,20.53
2023-05-04T10:01:38.994Z,20.46
2023-05-04T10:02:39.149Z,20.31
2023-05-04T10:03:39.071Z,20.39
2023-05-04T10:04:39.015Z,20.58
2023-05-04T10:05:38.971Z,20.49
2023-05-04T10:06:38.999Z,20.08
2023-05-04T10:07:41.387Z,20.09
2023-05-04T10:08:38.983Z,20.23
2023-05-04T10:09:38.936Z,20.34
2023-05-04T10:10:38.885Z,20.25
2023-05-04T10:11:38.901Z,20.09
2023-05-04T10:12:39.199Z,20.09
2023-05-04T10:13:38.859Z,20.27
2023-05-04T10:14:38.925Z,20.23
2023-05-04T10:15:38.875Z,20.20
2023-05-04T10:16:38.903Z,20.21
2023-05-04T10:17:38.811Z,20.21
2023-05-04T10:18:38.894Z,20.27
2023-05-04T10:19:39.051Z,20.50
2023-05-04T10:20:38.866Z,20.76
2023-05-04T10:21:39.781Z,21.08
2023-05-04T10:22:38.744Z,21.39
2023-05-04T10:23:38.844Z,21.59
2023-05-04T10:24:38.841Z,21.79
2023-05-04T10:25:38.758Z,21.85
2023-05-04T10:26:38.707Z,21.99
2023-05-04T10:27:38.748Z,21.92
2023-05-04T10:28:38.704Z,21.78
2023-05-04T10:29:38.657Z,21.90
2023-05-04T10:30:38.695Z,22.01
2023-05-04T10:31:38.709Z,22.10
2023-05-04T10:32:39.006Z,22.17
2023-05-04T10:33:38.666Z,22.02
2023-05-04T10:34:38.729Z,21.34
2023-05-04T10:35:38.617Z,21.19
2023-05-04T10:36:39.052Z,21.38
2023-05-04T10:37:38.594Z,21.69
2023-05-04T10:38:38.558Z,21.81
2023-05-04T10:39:38.552Z,21.94
2023-05-04T10:40:38.629Z,21.95
2023-05-04T10:41:38.558Z,21.61
2023-05-04T10:42:38.537Z,21.09
2023-05-04T10:43:38.580Z,20.93
2023-05-04T10:44:38.536Z,21.11
2023-05-04T10:45:38.580Z,21.29
2023-05-04T10:46:38.476Z,21.39
2023-05-04T10:47:38.484Z,21.63
2023-05-04T10:48:38.580Z,21.92
2023-05-04T10:49:38.489Z,21.79
2023-05-04T10:50:38.431Z,21.81
2023-05-04T10:51:48.760Z,21.75
2023-05-04T10:52:38.387Z,21.94
2023-05-04T10:53:38.416Z,21.79
2023-05-04T10:54:38.447Z,21.76
2023-05-04T10:55:38.458Z,21.81
2023-05-04T10:56:38.669Z,21.79
2023-05-04T10:57:38.332Z,21.81
2023-05-04T10:58:38.336Z,21.97
2023-05-04T10:59:38.395Z,21.91
2023-05-04T11:00:38.453Z,21.92
2023-05-04T11:01:38.407Z,21.99
2023-05-04T11:02:38.430Z,22.09
2023-05-04T11:03:38.699Z,22.17
2023-05-04T11:04:38.371Z,22.22
2023-05-04T11:05:38.250Z,22.37
2023-05-04T11:06:38.372Z,22.43
2023-05-04T11:07:38.327Z,22.43
2023-05-04T11:08:38.269Z,22.41
2023-05-04T11:09:38.309Z,22.67
2023-05-04T11:10:38.534Z,22.94
2023-05-04T11:11:38.263Z,23.17
2023-05-04T11:12:38.394Z,23.23
2023-05-04T11:13:38.190Z,23.19
2023-05-04T11:14:38.259Z,23.24
2023-05-04T11:15:38.158Z,23.47
2023-05-04T11:16:38.217Z,23.61
2023-05-04T11:17:38.247Z,23.32
2023-05-04T11:18:38.283Z,23.32
2023-05-04T11:19:38.205Z,23.35
2023-05-04T11:20:38.125Z,23.34
2023-05-04T11:21:38.108Z,22.50
2023-05-04T11:22:38.066Z,22.49
2023-05-04T11:23:38.914Z,22.38
2023-05-04T11:24:38.145Z,21.98
2023-05-04T11:25:38.053Z,21.57
2023-05-04T11:26:38.085Z,21.72
2023-05-04T11:27:38.144Z,21.99
2023-05-04T11:28:38.043Z,22.43
2023-05-04T11:29:38.372Z,22.29
2023-05-04T11:30:38.059Z,22.37
2023-05-04T11:31:38.073Z,22.47
2023-05-04T11:32:38.135Z,22.37
2023-05-04T11:33:38.012Z,22.67
2023-05-04T11:34:38.021Z,23.01
2023-05-04T11:35:37.966Z,23.47
2023-05-04T11:36:38.368Z,23.89
2023-05-04T11:37:37.964Z,24.19
2023-05-04T11:38:37.949Z,24.07
2023-05-04T11:39:38.045Z,24.17
2023-05-04T11:40:37.921Z,24.31
2023-05-04T11:41:37.899Z,24.37
2023-05-04T11:42:38.808Z,24.75
2023-05-04T11:43:37.970Z,24.80
2023-05-04T11:44:37.849Z,24.50
2023-05-04T11:45:37.888Z,24.57
2023-05-04T11:46:37.881Z,24.32
2023-05-04T11:47:37.877Z,24.02
2023-05-04T11:48:37.881Z,24.16
2023-05-04T11:49:38.136Z,24.41
2023-05-04T11:50:37.933Z,24.49
2023-05-04T11:51:37.834Z,24.54
2023-05-04T11:52:37.787Z,24.67
2023-05-04T11:53:37.881Z,24.85
2023-05-04T11:54:37.866Z,24.64
2023-05-04T11:55:37.871Z,24.69
2023-05-04T11:56:37.815Z,24.80
2023-05-04T11:57:37.801Z,25.10
2023-05-04T11:58:37.755Z,25.00
2023-05-04T11:59:37.773Z,24.44
2023-05-04T12:00:37.759Z,24.50
2023-05-04T12:01:37.990Z,24.69
2023-05-04T12:02:37.741Z,24.45
2023-05-04T12:03:52.159Z,24.05
2023-05-04T12:04:37.727Z,23.83
2023-05-04T12:05:37.817Z,23.97
2023-05-04T12:06:37.785Z,24.19
2023-05-04T12:07:38.013Z,24.60
2023-05-04T12:08:37.790Z,24.69
2023-05-04T12:09:37.803Z,24.98
2023-05-04T12:10:37.832Z,24.47
2023-05-04T12:11:37.626Z,24.29
2023-05-04T12:12:37.680Z,24.29
2023-05-04T12:13:37.573Z,23.82
2023-05-04T12:14:37.829Z,23.58
2023-05-04T12:15:37.622Z,23.60
2023-05-04T12:16:37.577Z,23.89
2023-05-04T12:17:37.651Z,24.20
2023-05-04T12:18:37.607Z,24.45
2023-05-04T12:19:37.565Z,24.67
2023-05-04T12:20:37.572Z,24.83
2023-05-04T12:21:37.522Z,24.75
2023-05-04T12:22:37.496Z,24.85
2023-05-04T12:23:37.478Z,24.92
2023-05-04T12:24:37.512Z,25.13
2023-05-04T12:25:47.334Z,24.98
2023-05-04T12:26:37.507Z,24.94
2023-05-04T12:27:37.736Z,24.82
2023-05-04T12:28:37.546Z,24.52
2023-05-04T12:29:37.441Z,24.75
2023-05-04T12:30:37.485Z,24.73
2023-05-04T12:31:37.547Z,24.64
2023-05-04T12:32:37.435Z,24.50
2023-05-04T12:33:37.421Z,24.31
2023-05-04T12:34:37.660Z,24.29
2023-05-04T12:35:37.385Z,24.45
2023-05-04T12:36:37.470Z,24.26
2023-05-04T12:37:37.373Z,24.12
2023-05-04T12:38:37.458Z,24.10
2023-05-04T12:39:37.425Z,24.26
2023-05-04T12:40:37.304Z,24.37
2023-05-04T12:41:37.314Z,24.73
2023-05-04T12:42:37.436Z,24.76
2023-05-04T12:43:37.317Z,24.50
2023-05-04T12:44:37.279Z,24.63
2023-05-04T12:45:37.278Z,24.54
2023-05-04T12:46:37.633Z,24.82
2023-05-04T12:47:37.513Z,24.88
2023-05-04T12:48:37.377Z,24.77
2023-05-04T12:49:37.268Z,24.79
2023-05-04T12:50:37.274Z,24.97
2023-05-04T12:51:37.213Z,24.83
2023-05-04T12:52:37.213Z,24.47
2023-05-04T12:53:37.267Z,24.31
2023-05-04T12:54:37.478Z,24.47
2023-05-04T12:55:37.172Z,24.57
2023-05-04T12:56:37.171Z,24.57
2023-05-04T12:57:37.132Z,24.67
2023-05-04T12:58:37.120Z,24.67
2023-05-04T12:59:37.141Z,24.88
2023-05-04T13:00:37.186Z,25.24
2023-05-04T13:01:37.421Z,25.35
2023-05-04T13:02:37.142Z,25.42
2023-05-04T13:03:37.322Z,25.17
2023-05-04T13:04:37.024Z,25.35